createdAt,value
2024-05-09T00:01:44.078Z,100812.00
2024-05-09T00:04:13.857Z,100811.69
2024-05-09T00:06:43.770Z,100808.31
2024-05-09T00:09:13.494Z,100812.19
2024-05-09T00:11:43.301Z,100803.13
2024-05-09T00:14:13.577Z,100801.78
2024-05-09T00:16:43.886Z,100805.63
2024-05-09T00:19:13.814Z,100803.63
2024-05-09T00:21:46.574Z,100787.84
2024-05-09T00:24:16.326Z,100796.72
2024-05-09T00:26:46.123Z,100789.31
2024-05-09T00:29:16.144Z,100782.13
2024-05-09T00:31:46.386Z,100787.66
2024-05-09T00:34:16.211Z,100789.31
2024-05-09T00:36:46.056Z,100786.81
2024-05-09T00:39:15.828Z,100789.00
2024-05-09T00:41:45.701Z,100793.38
2024-05-09T00:44:15.585Z,100781.97
2024-05-09T00:46:46.231Z,100784.66
2024-05-09T00:49:16.622Z,100776.44
2024-05-09T00:51:46.502Z,100779.66
2024-05-09T00:54:16.372Z,100774.94
2024-05-09T00:56:46.108Z,100770.56
2024-05-09T00:59:15.876Z,100767.72
2024-05-09T01:01:46.295Z,100766.03
2024-05-09T01:04:16.634Z,100765.03
2024-05-09T01:06:46.468Z,100774.75
2024-05-09T01:09:16.275Z,100773.59
2024-05-09T01:11:46.275Z,100772.06
2024-05-09T01:14:16.266Z,100778.44
2024-05-09T01:16:47.152Z,100775.44
2024-05-09T01:19:28.440Z,100772.38
2024-05-09T01:21:58.813Z,100784.00
2024-05-09T01:24:28.622Z,100775.75
2024-05-09T01:26:58.419Z,100773.91
2024-05-09T01:29:28.438Z,100770.56
2024-05-09T01:32:00.742Z,100771.91
2024-05-09T01:34:30.695Z,100776.59
2024-05-09T01:37:00.754Z,100774.75
2024-05-09T01:39:30.619Z,100768.22
2024-05-09T01:42:00.615Z,100776.78
2024-05-09T01:44:30.422Z,100771.91
2024-05-09T01:47:00.247Z,100771.91
2024-05-09T01:49:30.140Z,100772.91
2024-05-09T01:52:00.168Z,100772.91
2024-05-09T01:54:29.996Z,100768.72
2024-05-09T01:56:59.727Z,100762.66
2024-05-09T01:59:29.530Z,100769.03
2024-05-09T02:01:59.661Z,100756.31
2024-05-09T02:04:30.245Z,100763.84
2024-05-09T02:07:00.808Z,100765.84
2024-05-09T02:09:30.628Z,100767.00
2024-05-09T02:12:00.663Z,100775.94
2024-05-09T02:14:30.743Z,100774.75
2024-05-09T02:17:00.802Z,100766.38
2024-05-09T02:19:31.275Z,100766.69
2024-05-09T02:22:01.469Z,100758.81
2024-05-09T02:24:31.265Z,100765.53
2024-05-09T02:27:01.040Z,100766.69
2024-05-09T02:29:30.865Z,100761.31
2024-05-09T02:32:00.818Z,100771.41
2024-05-09T02:34:30.742Z,100774.75
2024-05-09T02:37:00.592Z,100769.22
2024-05-09T02:39:30.470Z,100759.16
2024-05-09T02:42:00.265Z,100753.78
2024-05-09T02:44:30.149Z,100756.31
2024-05-09T02:46:59.962Z,100746.41
2024-05-09T02:49:29.963Z,100751.78
2024-05-09T02:51:59.806Z,100745.72
2024-05-09T02:54:29.599Z,100746.09
2024-05-09T02:56:59.357Z,100744.56
2024-05-09T02:59:29.198Z,100738.53
2024-05-09T03:01:59.088Z,100728.28
2024-05-09T03:04:29.238Z,100731.97
2024-05-09T03:06:59.525Z,100736.66
2024-05-09T03:09:29.640Z,100728.44
2024-05-09T03:11:59.627Z,100733.63
2024-05-09T03:14:30.257Z,100740.34
2024-05-09T03:17:00.114Z,100730.94
2024-05-09T03:19:29.975Z,100731.78
2024-05-09T03:22:00.744Z,100734.66
2024-05-09T03:24:30.541Z,100737.69
2024-05-09T03:27:00.240Z,100737.69
2024-05-09T03:29:30.088Z,100733.16
2024-05-09T03:32:00.708Z,100730.13
2024-05-09T03:34:30.617Z,100727.09
2024-05-09T03:37:00.388Z,100723.91
2024-05-09T03:39:30.184Z,100727.28
2024-05-09T03:41:59.943Z,100720.72
2024-05-09T03:44:29.782Z,100716.50
2024-05-09T03:46:59.690Z,100717.34
2024-05-09T03:49:29.513Z,100705.25
2024-05-09T03:51:59.339Z,100708.28
2024-05-09T03:54:29.279Z,100708.94
2024-05-09T03:56:59.104Z,100714.16
2024-05-09T03:59:29.311Z,100697.38
2024-05-09T04:01:59.289Z,100703.44
2024-05-09T04:04:29.312Z,100696.03
2024-05-09T04:06:59.191Z,100687.63
2024-05-09T04:09:31.997Z,100691.84
2024-05-09T04:12:02.128Z,100684.78
2024-05-09T04:14:32.017Z,100684.28
2024-05-09T04:17:01.982Z,100676.88
2024-05-09T04:19:32.552Z,100672.19
2024-05-09T04:22:02.685Z,100670.84
2024-05-09T04:24:32.904Z,100659.91
2024-05-09T04:27:02.720Z,100657.56
2024-05-09T04:29:32.690Z,100656.72
2024-05-09T04:32:02.764Z,100667.56
2024-05-09T04:34:32.687Z,100655.47
2024-05-09T04:37:02.573Z,100654.94
2024-05-09T04:39:32.749Z,100650.72
2024-05-09T04:42:02.983Z,100642.03
2024-05-09T04:44:32.906Z,100643.88
2024-05-09T04:47:03.040Z,100647.56
2024-05-09T04:49:32.905Z,100646.56
2024-05-09T04:52:02.763Z,100636.63
2024-05-09T04:54:36.296Z,100630.06
2024-05-09T04:57:06.095Z,100636.75
2024-05-09T04:59:35.978Z,100633.22
2024-05-09T05:02:06.050Z,100626.69
2024-05-09T05:04:36.300Z,100625.50
2024-05-09T05:07:06.354Z,100623.78
2024-05-09T05:09:36.225Z,100619.97
2024-05-09T05:12:25.876Z,100613.22
2024-05-09T05:14:56.183Z,100613.03
2024-05-09T05:17:26.032Z,100614.91
2024-05-09T05:19:56.413Z,100606.81
2024-05-09T05:22:26.167Z,100606.53
2024-05-09T05:24:55.874Z,100602.66
2024-05-09T05:27:25.718Z,100597.94
2024-05-09T05:29:55.494Z,100599.78
2024-05-09T05:32:25.682Z,100597.28
2024-05-09T05:34:55.695Z,100591.75
2024-05-09T05:37:26.418Z,100585.22
2024-05-09T05:39:56.238Z,100581.06
2024-05-09T05:42:26.328Z,100580.56
2024-05-09T05:44:56.906Z,100572.00
2024-05-09T05:47:26.879Z,100563.13
2024-05-09T05:49:56.693Z,100565.63
2024-05-09T05:52:27.268Z,100567.13
2024-05-09T05:54:57.313Z,100560.78
2024-05-09T05:57:27.223Z,100562.63
2024-05-09T05:59:57.008Z,100561.94
2024-05-09T06:02:26.982Z,100568.84
2024-05-09T06:04:57.687Z,100558.78
2024-05-09T06:07:27.639Z,100560.31
2024-05-09T06:09:58.734Z,100558.47
2024-05-09T06:12:28.758Z,100564.00
2024-05-09T06:14:58.714Z,100552.59
2024-05-09T06:17:29.306Z,100556.13
2024-05-09T06:19:59.310Z,100551.97
2024-05-09T06:22:29.076Z,100548.75
2024-05-09T06:24:59.049Z,100549.44
2024-05-09T06:27:28.850Z,100557.50
2024-05-09T06:29:58.597Z,100559.50
2024-05-09T06:32:28.948Z,100550.78
2024-05-09T06:34:58.848Z,100540.91
2024-05-09T06:37:28.605Z,100554.22
2024-05-09T06:39:59.047Z,100553.44
2024-05-09T06:42:28.812Z,100554.78
2024-05-09T06:44:58.644Z,100549.53
2024-05-09T06:47:28.630Z,100547.06
2024-05-09T06:49:58.560Z,100549.72
2024-05-09T06:52:28.710Z,100540.50
2024-05-09T06:54:58.623Z,100543.34
2024-05-09T06:57:31.403Z,100547.06
2024-05-09T07:00:02.272Z,100551.22
2024-05-09T07:02:33.980Z,100548.34
2024-05-09T07:05:04.350Z,100545.19
2024-05-09T07:07:34.304Z,100540.16
2024-05-09T07:10:06.270Z,100534.59
2024-05-09T07:12:37.757Z,100528.88
2024-05-09T07:15:07.837Z,100526.84
2024-05-09T07:17:37.770Z,100537.06
2024-05-09T07:20:11.830Z,100531.19
2024-05-09T07:22:45.861Z,100535.22
2024-05-09T07:25:15.698Z,100520.28
2024-05-09T07:27:45.392Z,100527.00
2024-05-09T07:30:22.940Z,100522.44
2024-05-09T07:32:58.200Z,100525.44
2024-05-09T07:35:28.274Z,100528.50
2024-05-09T07:37:58.250Z,100527.97
2024-05-09T07:40:34.784Z,100525.44
2024-05-09T07:43:07.020Z,100506.66
2024-05-09T07:45:48.369Z,100516.06
2024-05-09T07:52:45.935Z,100516.59
2024-05-09T07:53:51.015Z,100517.28
2024-05-09T07:56:24.367Z,100518.47
2024-05-09T07:58:55.761Z,100524.00
2024-05-09T08:01:27.683Z,100525.53
2024-05-09T08:03:58.027Z,100521.34
2024-05-09T08:06:29.011Z,100524.50
2024-05-09T08:09:05.291Z,100532.25
2024-05-09T08:11:38.537Z,100531.09
2024-05-09T08:14:08.273Z,100531.78
2024-05-09T08:16:38.048Z,100537.63
2024-05-09T08:19:08.514Z,100533.13
2024-05-09T08:21:38.733Z,100536.47
2024-05-09T08:24:08.728Z,100529.25
2024-05-09T08:26:38.554Z,100534.28
2024-05-09T08:29:08.306Z,100538.81
2024-05-09T08:31:41.195Z,100545.84
2024-05-09T08:34:15.081Z,100545.53
2024-05-09T08:36:45.248Z,100551.91
2024-05-09T08:39:15.199Z,100541.19
2024-05-09T08:41:45.198Z,100539.34
2024-05-09T08:44:15.014Z,100545.53
2024-05-09T08:46:45.005Z,100534.63
2024-05-09T08:49:14.910Z,100543.03
2024-05-09T08:51:45.397Z,100531.78
2024-05-09T08:54:15.282Z,100534.63
2024-05-09T08:56:48.720Z,100540.69
2024-05-09T08:59:26.347Z,100541.00
2024-05-09T09:01:56.497Z,100543.88
2024-05-09T09:04:26.546Z,100541.31
2024-05-09T09:06:58.140Z,100551.22
2024-05-09T09:09:28.644Z,100553.06
2024-05-09T09:11:59.536Z,100552.75
2024-05-09T09:14:29.289Z,100550.06
2024-05-09T09:17:01.758Z,100548.22
2024-05-09T09:19:31.655Z,100552.88
2024-05-09T09:22:01.566Z,100550.06
2024-05-09T09:24:31.327Z,100551.53
2024-05-09T09:27:01.109Z,100549.56
2024-05-09T09:29:31.525Z,100555.75
2024-05-09T09:32:10.496Z,100562.13
2024-05-09T09:34:40.419Z,100553.06
2024-05-09T09:37:11.752Z,100556.59
2024-05-09T09:39:43.548Z,100553.06
2024-05-09T09:42:13.638Z,100562.28
2024-05-09T09:44:47.842Z,100563.28
2024-05-09T09:47:20.997Z,100558.94
2024-05-09T09:49:50.805Z,100557.22
2024-05-09T09:52:20.607Z,100561.94
2024-05-09T09:54:50.871Z,100564.06
2024-05-09T09:57:21.516Z,100561.72
2024-05-09T09:59:51.447Z,100568.25
2024-05-09T10:02:21.518Z,100566.25
2024-05-09T10:04:51.854Z,100572.44
2024-05-09T10:07:22.486Z,100579.97
2024-05-09T10:09:56.972Z,100583.50
2024-05-09T10:12:27.357Z,100578.44
2024-05-09T10:14:57.294Z,100582.13
2024-05-09T10:17:27.134Z,100587.00
2024-05-09T10:20:14.900Z,100585.84
2024-05-09T10:22:52.086Z,100580.66
2024-05-09T10:25:22.093Z,100579.78
2024-05-09T10:27:57.535Z,100579.28
2024-05-09T10:30:34.150Z,100585.63
2024-05-09T10:33:06.149Z,100591.00
2024-05-09T10:35:35.992Z,100586.34
2024-05-09T10:38:08.960Z,100590.00
2024-05-09T10:40:38.887Z,100580.59
2024-05-09T10:43:08.763Z,100584.59
2024-05-09T10:45:38.705Z,100585.44
2024-05-09T10:48:09.087Z,100592.00
2024-05-09T10:50:41.768Z,100589.31
2024-05-09T10:53:11.504Z,100591.16
2024-05-09T10:55:41.257Z,100594.16
2024-05-09T10:58:19.842Z,100597.16
2024-05-09T11:00:49.760Z,100600.50
2024-05-09T11:03:23.514Z,100607.03
2024-05-09T11:05:57.072Z,100612.72
2024-05-09T11:08:27.380Z,100615.38
2024-05-09T11:10:57.595Z,100611.38
2024-05-09T11:13:35.568Z,100615.91
2024-05-09T11:16:06.308Z,100624.47
2024-05-09T11:18:39.032Z,100619.09
2024-05-09T11:21:14.588Z,100629.81
2024-05-09T11:23:44.335Z,100633.34
2024-05-09T11:26:16.812Z,100635.19
2024-05-09T11:28:47.127Z,100641.69
2024-05-09T11:31:17.179Z,100642.38
2024-05-09T11:33:50.572Z,100653.25
2024-05-09T11:36:20.392Z,100650.56
2024-05-09T11:38:50.227Z,100647.22
2024-05-09T11:41:20.400Z,100649.91
2024-05-09T11:43:50.110Z,100653.56
2024-05-09T11:46:20.242Z,100654.56
2024-05-09T11:48:50.124Z,100662.63
2024-05-09T11:51:20.032Z,100662.63
2024-05-09T11:53:50.333Z,100661.78
2024-05-09T11:56:20.629Z,100660.25
2024-05-09T11:58:51.156Z,100657.44
2024-05-09T12:01:27.549Z,100658.44
2024-05-09T12:03:58.067Z,100663.94
2024-05-09T12:06:28.142Z,100663.09
2024-05-09T12:08:58.553Z,100664.63
2024-05-09T12:11:28.637Z,100664.78
2024-05-09T12:13:59.099Z,100669.28
2024-05-09T12:16:29.212Z,100673.13
2024-05-09T12:18:59.140Z,100677.66
2024-05-09T12:21:28.968Z,100678.66
2024-05-09T12:23:58.786Z,100680.63
2024-05-09T12:26:29.195Z,100690.22
2024-05-09T12:28:58.978Z,100693.06
2024-05-09T12:31:28.854Z,100691.53
2024-05-09T12:33:58.837Z,100688.00
2024-05-09T12:36:32.740Z,100693.53
2024-05-09T12:39:02.680Z,100695.34
2024-05-09T12:41:32.398Z,100694.38
2024-05-09T12:44:02.144Z,100693.53
2024-05-09T12:46:33.452Z,100705.22
2024-05-09T12:49:03.597Z,100698.38
2024-05-09T12:51:33.990Z,100706.41
2024-05-09T12:54:04.060Z,100708.06
2024-05-09T12:56:35.331Z,100710.75
2024-05-09T12:59:05.198Z,100708.38
2024-05-09T13:01:35.199Z,100715.28
2024-05-09T13:04:05.338Z,100717.13
2024-05-09T13:06:35.155Z,100716.44
2024-05-09T13:09:04.941Z,100725.47
2024-05-09T13:11:34.755Z,100723.09
2024-05-09T13:14:04.532Z,100723.25
2024-05-09T13:16:34.969Z,100725.06
2024-05-09T13:19:04.850Z,100723.41
2024-05-09T13:21:34.621Z,100727.94
2024-05-09T13:24:04.424Z,100729.59
2024-05-09T13:26:34.170Z,100735.97
2024-05-09T13:29:03.925Z,100730.78
2024-05-09T13:31:33.800Z,100735.13
2024-05-09T13:34:04.157Z,100736.28
2024-05-09T13:36:34.586Z,100731.91
2024-05-09T13:39:05.394Z,100733.75
2024-05-09T13:41:35.594Z,100732.75
2024-05-09T13:44:06.366Z,100729.38
2024-05-09T13:46:36.446Z,100729.38
2024-05-09T13:49:07.717Z,100728.69
2024-05-09T13:51:39.698Z,100728.84
2024-05-09T13:54:10.127Z,100733.34
2024-05-09T13:56:40.407Z,100731.66
2024-05-09T13:59:10.737Z,100727.97
2024-05-09T14:01:41.052Z,100729.81
2024-05-09T14:04:11.645Z,100728.16
2024-05-09T14:06:42.182Z,100720.41
2024-05-09T14:09:12.015Z,100732.81
2024-05-09T14:11:41.872Z,100731.97
2024-05-09T14:14:11.628Z,100740.16
2024-05-09T14:16:42.012Z,100741.00
2024-05-09T14:19:12.134Z,100743.16
2024-05-09T14:21:42.027Z,100747.84
2024-05-09T14:24:11.776Z,100753.19
2024-05-09T14:26:41.928Z,100754.88
2024-05-09T14:29:12.133Z,100762.06
2024-05-09T14:31:42.594Z,100759.38
2024-05-09T14:34:12.668Z,100762.72
2024-05-09T14:36:42.782Z,100758.38
2024-05-09T14:39:12.635Z,100763.44
2024-05-09T14:41:42.703Z,100763.72
2024-05-09T14:44:14.164Z,100761.88
2024-05-09T14:46:44.058Z,100765.41
2024-05-09T14:49:13.966Z,100764.75
2024-05-09T14:51:45.626Z,100759.38
2024-05-09T14:54:15.438Z,100765.56
2024-05-09T14:56:45.195Z,100768.56
2024-05-09T14:59:14.926Z,100761.34
2024-05-09T15:01:44.782Z,100771.41
2024-05-09T15:04:14.865Z,100760.69
2024-05-09T15:06:45.607Z,100766.88
2024-05-09T15:09:16.115Z,100765.19
2024-05-09T15:11:47.792Z,100762.66
2024-05-09T15:14:18.083Z,100758.97
2024-05-09T15:16:50.154Z,100762.66
2024-05-09T15:19:20.598Z,100762.84
2024-05-09T15:21:51.185Z,100770.16
2024-05-09T15:24:21.489Z,100762.28
2024-05-09T15:26:51.484Z,100757.91
2024-05-09T15:29:21.472Z,100764.09
2024-05-09T15:31:51.252Z,100751.59
2024-05-09T15:34:21.128Z,100749.75
2024-05-09T15:36:52.696Z,100743.69
2024-05-09T15:39:22.531Z,100743.03
2024-05-09T15:41:54.530Z,100740.66
2024-05-09T15:44:24.440Z,100743.16
2024-05-09T15:46:57.815Z,100744.31
2024-05-09T15:49:27.662Z,100743.63
2024-05-09T15:51:57.576Z,100751.50
2024-05-09T15:54:27.325Z,100740.94
2024-05-09T15:56:57.515Z,100762.19
2024-05-09T15:59:27.229Z,100753.31
2024-05-09T16:01:58.537Z,100752.50
2024-05-09T16:04:28.729Z,100750.81
2024-05-09T16:06:58.762Z,100754.34
2024-05-09T16:09:28.704Z,100756.31
2024-05-09T16:11:58.642Z,100759.97
2024-05-09T16:14:28.585Z,100759.16
2024-05-09T16:16:58.870Z,100755.09
2024-05-09T16:19:28.620Z,100752.59
2024-05-09T16:21:59.797Z,100756.09
2024-05-09T16:24:29.708Z,100757.94
2024-05-09T16:26:59.884Z,100760.44
2024-05-09T16:29:29.671Z,100765.81
2024-05-09T16:31:59.588Z,100758.78
2024-05-09T16:34:30.338Z,100761.28
2024-05-09T16:37:00.214Z,100757.78
2024-05-09T16:39:30.072Z,100763.28
2024-05-09T16:42:00.302Z,100755.41
2024-05-09T16:44:31.930Z,100755.56
2024-05-09T16:47:03.348Z,100755.69
2024-05-09T16:49:33.223Z,100758.38
2024-05-09T16:52:03.063Z,100758.53
2024-05-09T16:54:32.966Z,100755.84
2024-05-09T16:57:02.715Z,100758.38
2024-05-09T16:59:32.477Z,100749.50
2024-05-09T17:02:02.425Z,100744.16
2024-05-09T17:04:32.383Z,100744.16
2024-05-09T17:07:02.327Z,100730.94
2024-05-09T17:09:32.175Z,100726.59
2024-05-09T17:12:01.941Z,100730.22
2024-05-09T17:14:31.794Z,100735.59
2024-05-09T17:17:01.696Z,100724.03
2024-05-09T17:19:32.060Z,100729.56
2024-05-09T17:22:01.922Z,100720.53
2024-05-09T17:24:32.081Z,100726.72
2024-05-09T17:27:02.949Z,100724.22
2024-05-09T17:29:33.433Z,100718.84
2024-05-09T17:32:03.330Z,100718.16
2024-05-09T17:34:33.379Z,100722.38
2024-05-09T17:37:03.289Z,100727.84
2024-05-09T17:39:33.227Z,100722.66
2024-05-09T17:42:03.051Z,100718.03
2024-05-09T17:44:32.804Z,100722.50
2024-05-09T17:47:02.637Z,100724.22
2024-05-09T17:49:32.628Z,100721.84
2024-05-09T17:52:02.515Z,100716.47
2024-05-09T17:54:32.288Z,100721.84
2024-05-09T17:57:02.077Z,100716.63
2024-05-09T17:59:31.820Z,100717.47
2024-05-09T18:02:01.772Z,100716.63
2024-05-09T18:04:33.455Z,100722.97
2024-05-09T18:07:03.644Z,100722.97
2024-05-09T18:09:33.465Z,100716.94
2024-05-09T18:12:03.471Z,100711.44
2024-05-09T18:14:33.257Z,100717.78
2024-05-09T18:17:03.758Z,100722.13
2024-05-09T18:19:33.751Z,100732.66
2024-05-09T18:22:04.725Z,100730.00
2024-05-09T18:24:35.093Z,100737.06
2024-05-09T18:27:05.539Z,100742.53
2024-05-09T18:29:35.934Z,100742.41
2024-05-09T18:32:06.304Z,100744.25
2024-05-09T18:34:36.097Z,100742.53
2024-05-09T18:37:05.911Z,100744.38
2024-05-09T18:39:35.745Z,100732.66
2024-05-09T18:42:05.556Z,100733.84
2024-05-09T18:44:35.232Z,100733.28
2024-05-09T18:47:06.112Z,100734.97
2024-05-09T18:49:36.049Z,100731.47
2024-05-09T18:52:06.023Z,100730.63
2024-05-09T18:54:35.849Z,100744.84
2024-05-09T18:57:05.689Z,100733.13
2024-05-09T18:59:35.451Z,100738.34
2024-05-09T19:02:05.404Z,100737.50
2024-05-09T19:04:35.329Z,100740.19
2024-05-09T19:07:05.878Z,100739.19
2024-05-09T19:09:36.963Z,100734.84
2024-05-09T19:12:08.117Z,100726.81
2024-05-09T19:14:37.890Z,100733.84
2024-05-09T19:17:08.087Z,100737.50
2024-05-09T19:19:38.556Z,100729.63
2024-05-09T19:22:11.968Z,100727.09
2024-05-09T19:24:42.559Z,100733.59
2024-05-09T19:27:12.606Z,100725.19
2024-05-09T19:29:42.700Z,100735.06
2024-05-09T19:32:12.631Z,100735.31
2024-05-09T19:34:42.384Z,100733.34
2024-05-09T19:39:41.367Z,100737.00
2024-05-09T19:42:11.194Z,100731.50
2024-05-09T19:47:10.069Z,100726.75
2024-05-09T19:49:39.953Z,100736.44
2024-05-09T19:52:09.974Z,100735.63
2024-05-09T19:54:39.827Z,100737.59
2024-05-09T19:57:09.612Z,100737.44
2024-05-09T19:59:39.689Z,100737.44
2024-05-09T20:02:10.140Z,100733.06
2024-05-09T20:04:40.026Z,100734.06
2024-05-09T20:07:10.129Z,100734.78
2024-05-09T20:09:40.413Z,100735.19
2024-05-09T20:12:11.259Z,100734.81
2024-05-09T20:14:41.068Z,100739.50
2024-05-09T20:17:10.987Z,100737.66
2024-05-09T20:19:40.849Z,100740.63
2024-05-09T20:22:10.939Z,100739.91
2024-05-09T20:24:40.915Z,100745.59
2024-05-09T20:27:10.757Z,100743.22
2024-05-09T20:29:40.764Z,100749.41
2024-05-09T20:32:10.658Z,100740.00
2024-05-09T20:34:40.532Z,100738.59
2024-05-09T20:37:11.053Z,100738.59
2024-05-09T20:39:41.004Z,100736.91
2024-05-09T20:42:10.803Z,100731.88
2024-05-09T20:44:40.561Z,100735.69
2024-05-09T20:47:11.234Z,100733.13
2024-05-09T20:49:41.061Z,100739.47
2024-05-09T20:52:10.936Z,100732.47
2024-05-09T20:54:40.849Z,100731.63
2024-05-09T20:57:10.591Z,100736.13
2024-05-09T20:59:41.013Z,100739.84
2024-05-09T21:02:10.870Z,100743.25
2024-05-09T21:04:40.978Z,100751.16
2024-05-09T21:07:11.164Z,100757.31
2024-05-09T21:09:41.320Z,100757.88
2024-05-09T21:12:11.336Z,100772.53
2024-05-09T21:14:41.158Z,100772.06
2024-05-09T21:17:10.967Z,100772.94
2024-05-09T21:19:40.965Z,100771.09
2024-05-09T21:22:10.714Z,100776.56
2024-05-09T21:24:41.161Z,100782.22
2024-05-09T21:27:11.393Z,100775.47
2024-05-09T21:29:41.240Z,100791.22
2024-05-09T21:32:11.074Z,100781.09
2024-05-09T21:34:40.918Z,100780.66
2024-05-09T21:37:11.035Z,100786.38
2024-05-09T21:39:40.918Z,100787.94
2024-05-09T21:42:10.728Z,100780.91
2024-05-09T21:44:40.487Z,100787.66
2024-05-09T21:47:10.282Z,100784.53
2024-05-09T21:49:40.189Z,100786.22
2024-05-09T21:52:10.924Z,100789.59
2024-05-09T21:54:40.998Z,100787.47
2024-05-09T21:57:11.621Z,100794.34
2024-05-09T21:59:43.161Z,100789.81
2024-05-09T22:02:13.762Z,100791.25
2024-05-09T22:04:44.059Z,100794.59
2024-05-09T22:07:14.196Z,100796.69
2024-05-09T22:09:46.868Z,100798.38
2024-05-09T22:12:16.709Z,100801.59
2024-05-09T22:14:46.447Z,100812.66
2024-05-09T22:17:16.216Z,100812.00
2024-05-09T22:19:51.218Z,100804.34
2024-05-09T22:22:22.354Z,100801.41
2024-05-09T22:24:53.396Z,100806.75
2024-05-09T22:27:23.820Z,100803.63
2024-05-09T22:29:53.725Z,100809.09
2024-05-09T22:32:23.548Z,100801.19
2024-05-09T22:34:53.417Z,100805.63
2024-05-09T22:37:23.221Z,100813.06
2024-05-09T22:39:53.141Z,100808.78
2024-05-09T22:42:22.985Z,100809.00
2024-05-09T22:44:52.768Z,100816.13
2024-05-09T22:47:23.153Z,100818.53
2024-05-09T22:49:53.416Z,100822.56
2024-05-09T22:52:23.443Z,100823.94
2024-05-09T22:54:53.317Z,100821.50
2024-05-09T22:57:23.290Z,100822.03
2024-05-09T22:59:53.068Z,100816.78
2024-05-09T23:02:22.931Z,100821.16
2024-05-09T23:04:52.874Z,100816.69
2024-05-09T23:07:23.143Z,100814.53
2024-05-09T23:09:53.937Z,100808.34
2024-05-09T23:12:24.366Z,100812.41
2024-05-09T23:14:54.127Z,100807.44
2024-05-09T23:17:23.952Z,100808.28
2024-05-09T23:19:53.736Z,100819.66
2024-05-09T23:22:23.512Z,100818.69
2024-05-09T23:24:53.953Z,100810.31
2024-05-09T23:27:23.773Z,100815.34
2024-05-09T23:29:53.565Z,100811.53
2024-05-09T23:32:23.609Z,100813.06
2024-05-09T23:34:53.452Z,100807.53
2024-05-09T23:37:23.788Z,100803.31
2024-05-09T23:39:53.640Z,100799.50
2024-05-09T23:42:23.430Z,100800.50
2024-05-09T23:44:55.354Z,100789.63
2024-05-09T23:47:25.426Z,100786.94
2024-05-09T23:49:55.215Z,100793.00
2024-05-09T23:52:25.077Z,100783.94
2024-05-09T23:54:55.059Z,100787.28
2024-05-09T23:57:25.181Z,100779.94
2024-05-09T23:59:55.431Z,100781.63
